ポートオブスペイン の空港の天気 - METARとTAF

ピアルコ国際空港(ポートオブスペイン) ( TTPP / POS ) - トリニダード・トバゴ ポートオブスペイン (トリニダード島)
飛行場実況気象(Metar)
観測時間10/23 21:00 AST (10/24 01:00 UTC)
風向・風速東 3m/s
視程10km以上
天気現象
少しの雲 雲底高度 550m
気温27℃
湿度74%
気圧1012hPa
METARTTPP 240100Z 09005KT 9999 FEW018 27/22 Q1012 NOSIG
過去の天気等 Google飛行場航空写真 Wunderground天気予報

過去48時間のMETAR

飛行場予報(TAF)
発表時間: 10/23 12:00 AST (10/23 16:00 UTC)
予報対象時間: 23日14時 AST ~ 24日14時 AST
風向・風速東 8m/s 瞬間風速 13m/s
視程9000m
全天の4割程度の雲 雲底高度 550m
23日14時 AST ~ 23日18時 AST に一時的に
視程5000m
天気現象しゅう雨
全天の8割程度の雲 雲底高度 490m
23日21時 AST ~ 23日23時 AST に徐々に
風向・風速東 5m/s 瞬間風速 10m/s
少しの雲 雲底高度 490m
24日7時 AST ~ 24日9時 AST に徐々に
全天の4割程度の雲 雲底高度 670m
TTPP 231600Z 2318/2418 10015G25KT 9000 SCT018
TEMPO 2318/2322 5000 SHRA BKN016
BECMG 2401/2403 10010G20KT FEW016
BECMG 2411/2413 SCT022